createdAt,value
2017-12-26T00:02:10.903Z,85.00
2017-12-26T00:04:40.401Z,83.90
2017-12-26T00:07:09.855Z,83.70
2017-12-26T00:09:38.194Z,83.70
2017-12-26T00:12:07.667Z,85.10
2017-12-26T00:14:36.392Z,85.10
2017-12-26T00:17:05.085Z,85.60
2017-12-26T00:19:33.778Z,85.30
2017-12-26T00:22:02.209Z,84.60
2017-12-26T00:24:30.902Z,85.70
2017-12-26T00:26:59.577Z,86.10
2017-12-26T00:29:28.371Z,85.90
2017-12-26T00:31:57.053Z,85.20
2017-12-26T00:34:25.730Z,84.00
2017-12-26T00:36:54.465Z,84.20
2017-12-26T00:39:23.885Z,84.80
2017-12-26T00:41:52.559Z,84.80
2017-12-26T00:44:22.019Z,85.80
2017-12-26T00:46:50.729Z,85.10
2017-12-26T00:49:19.395Z,84.90
2017-12-26T00:51:48.121Z,84.80
2017-12-26T00:54:17.829Z,84.00
2017-12-26T00:56:47.402Z,84.70
2017-12-26T00:59:17.059Z,84.40
2017-12-26T01:01:46.502Z,84.70
2017-12-26T01:04:15.188Z,84.50
2017-12-26T01:06:43.891Z,84.70
2017-12-26T01:09:12.579Z,85.30
2017-12-26T01:11:41.269Z,85.00
2017-12-26T01:14:09.998Z,84.60
2017-12-26T01:16:39.440Z,85.00
2017-12-26T01:19:08.159Z,85.00
2017-12-26T01:21:36.875Z,85.00
2017-12-26T01:24:05.550Z,84.60
2017-12-26T01:26:35.010Z,84.70
2017-12-26T01:29:03.927Z,84.70
2017-12-26T01:31:32.599Z,83.80
2017-12-26T01:34:01.293Z,83.60
2017-12-26T01:36:29.691Z,84.50
2017-12-26T01:38:58.367Z,84.20
2017-12-26T01:41:27.249Z,85.30
2017-12-26T01:43:55.962Z,84.40
2017-12-26T01:46:25.417Z,83.50
2017-12-26T01:48:54.076Z,83.50
2017-12-26T01:51:23.533Z,83.20
2017-12-26T01:53:52.197Z,83.20
2017-12-26T01:56:20.866Z,83.30
2017-12-26T01:58:49.614Z,83.10
2017-12-26T02:01:18.285Z,84.10
2017-12-26T02:03:49.207Z,83.60
2017-12-26T02:06:17.910Z,83.60
2017-12-26T02:08:46.580Z,83.20
2017-12-26T02:11:15.255Z,83.40
2017-12-26T02:13:43.975Z,83.60
2017-12-26T02:16:13.413Z,83.00
2017-12-26T02:18:42.884Z,83.40
2017-12-26T02:21:11.583Z,83.40
2017-12-26T02:23:40.248Z,82.60
2017-12-26T02:26:08.924Z,83.90
2017-12-26T02:28:37.611Z,83.30
2017-12-26T02:31:06.282Z,83.50
2017-12-26T02:33:34.973Z,83.50
2017-12-26T02:36:03.670Z,83.60
2017-12-26T02:38:32.598Z,83.90
2017-12-26T02:41:01.266Z,83.40
2017-12-26T02:43:29.962Z,82.80
2017-12-26T02:45:58.667Z,82.70
2017-12-26T02:48:27.368Z,82.80
2017-12-26T02:50:56.053Z,83.30
2017-12-26T02:53:25.567Z,83.50
2017-12-26T02:55:55.023Z,83.70
2017-12-26T02:58:23.696Z,83.70
2017-12-26T03:00:52.393Z,83.30
2017-12-26T03:03:21.119Z,82.80
2017-12-26T03:05:49.788Z,82.40
2017-12-26T03:08:18.493Z,83.00
2017-12-26T03:10:47.159Z,82.80
2017-12-26T03:13:15.858Z,83.00
2017-12-26T03:15:44.537Z,83.40
2017-12-26T03:18:13.241Z,83.40
2017-12-26T03:20:41.922Z,83.60
2017-12-26T03:23:10.623Z,83.60
2017-12-26T03:25:40.087Z,83.60
2017-12-26T03:28:08.774Z,83.40
2017-12-26T03:30:37.466Z,82.90
2017-12-26T03:33:06.135Z,83.20
2017-12-26T03:35:34.805Z,83.30
2017-12-26T03:38:03.494Z,83.30
2017-12-26T03:40:32.168Z,83.50
2017-12-26T03:43:00.835Z,83.10
2017-12-26T03:45:29.513Z,83.70
2017-12-26T03:47:58.193Z,83.30
2017-12-26T03:50:26.912Z,83.00
2017-12-26T03:52:55.584Z,82.30
2017-12-26T03:55:25.026Z,83.00
2017-12-26T03:57:53.721Z,83.00
2017-12-26T04:00:22.406Z,82.70
2017-12-26T04:02:51.085Z,82.80
2017-12-26T04:05:19.765Z,83.40
2017-12-26T04:07:48.522Z,83.10
2017-12-26T04:10:17.236Z,83.00
2017-12-26T04:12:46.861Z,82.20
2017-12-26T04:15:15.574Z,82.20
2017-12-26T04:17:44.293Z,82.20
2017-12-26T04:20:13.760Z,82.90
2017-12-26T04:22:42.450Z,82.50
2017-12-26T04:25:11.140Z,82.80
2017-12-26T04:27:39.480Z,82.90
2017-12-26T04:30:08.206Z,82.50
2017-12-26T04:32:36.887Z,82.80
2017-12-26T04:35:05.599Z,82.60
2017-12-26T04:37:34.301Z,82.90
2017-12-26T04:40:02.991Z,82.70
2017-12-26T04:42:31.669Z,83.00
2017-12-26T04:45:00.426Z,83.10
2017-12-26T04:47:29.112Z,83.10
2017-12-26T04:49:57.971Z,81.80
2017-12-26T04:52:26.676Z,82.20
2017-12-26T04:54:55.373Z,82.40
2017-12-26T04:57:24.055Z,82.10
2017-12-26T04:59:52.795Z,81.80
2017-12-26T05:02:22.249Z,82.70
2017-12-26T05:04:50.950Z,82.70
2017-12-26T05:07:19.646Z,82.60
2017-12-26T05:09:48.384Z,82.60
2017-12-26T05:12:18.005Z,82.30
2017-12-26T05:14:46.727Z,82.30
2017-12-26T05:17:15.398Z,82.20
2017-12-26T05:19:44.103Z,81.80
2017-12-26T05:22:12.805Z,81.60
2017-12-26T05:24:41.474Z,81.90
2017-12-26T05:27:10.163Z,82.60
2017-12-26T05:29:38.891Z,82.50
2017-12-26T05:32:07.581Z,82.50
2017-12-26T05:34:36.253Z,83.30
2017-12-26T05:37:05.708Z,82.90
2017-12-26T05:39:34.384Z,82.60
2017-12-26T05:42:03.076Z,82.90
2017-12-26T05:44:31.774Z,82.60
2017-12-26T05:47:00.449Z,82.30
2017-12-26T05:49:29.156Z,82.30
2017-12-26T05:51:57.914Z,82.20
2017-12-26T05:54:26.640Z,81.60
2017-12-26T05:56:55.331Z,82.00
2017-12-26T05:59:24.071Z,82.10
2017-12-26T06:01:52.767Z,82.30
2017-12-26T06:04:21.458Z,82.20
2017-12-26T06:06:50.165Z,82.30
2017-12-26T06:09:18.864Z,83.00
2017-12-26T06:11:46.892Z,82.50
2017-12-26T06:14:15.603Z,82.50
2017-12-26T06:16:44.306Z,82.80
2017-12-26T06:19:12.989Z,82.80
2017-12-26T06:21:41.684Z,82.60
2017-12-26T06:24:10.380Z,82.10
2017-12-26T06:26:39.100Z,83.10
2017-12-26T06:29:08.726Z,82.40
2017-12-26T06:31:37.412Z,82.30
2017-12-26T06:34:06.110Z,81.60
2017-12-26T06:36:34.770Z,82.20
2017-12-26T06:39:03.546Z,82.80
2017-12-26T06:41:32.268Z,82.80
2017-12-26T06:44:00.963Z,83.20
2017-12-26T06:46:29.655Z,82.50
2017-12-26T06:48:58.402Z,82.90
2017-12-26T06:51:27.843Z,82.80
2017-12-26T06:53:56.548Z,82.80
2017-12-26T06:56:25.305Z,82.70
2017-12-26T06:58:53.991Z,82.30
2017-12-26T07:01:22.737Z,82.80
2017-12-26T07:03:51.443Z,82.50
2017-12-26T07:06:20.922Z,83.00
2017-12-26T07:08:49.611Z,83.10
2017-12-26T07:11:18.508Z,82.90
2017-12-26T07:13:47.193Z,82.60
2017-12-26T07:16:15.850Z,83.90
2017-12-26T07:18:44.531Z,83.10
2017-12-26T07:21:18.721Z,82.80
2017-12-26T07:23:47.415Z,82.70
2017-12-26T07:26:16.159Z,82.50
2017-12-26T07:28:44.867Z,82.50
2017-12-26T07:31:14.312Z,82.60
2017-12-26T07:33:42.971Z,82.60
2017-12-26T07:36:11.695Z,82.60
2017-12-26T07:38:40.355Z,82.50
2017-12-26T07:41:09.040Z,82.30
2017-12-26T07:43:37.749Z,82.60
2017-12-26T07:46:06.442Z,82.50
2017-12-26T07:48:35.141Z,82.80
2017-12-26T07:51:03.862Z,83.00
2017-12-26T07:53:32.526Z,83.90
2017-12-26T07:56:01.322Z,83.60
2017-12-26T07:58:30.039Z,83.00
2017-12-26T08:00:58.768Z,83.30
2017-12-26T08:03:27.483Z,82.90
2017-12-26T08:05:56.178Z,83.20
2017-12-26T08:08:24.955Z,83.70
2017-12-26T08:10:53.678Z,83.80
2017-12-26T08:13:23.142Z,83.10
2017-12-26T08:15:51.844Z,83.10
2017-12-26T08:18:20.586Z,83.30
2017-12-26T08:20:49.293Z,84.10
2017-12-26T08:23:17.997Z,82.60
2017-12-26T08:25:46.714Z,82.30
2017-12-26T08:28:16.167Z,84.10
2017-12-26T08:30:44.866Z,84.10
2017-12-26T08:33:13.570Z,83.50
2017-12-26T08:35:42.274Z,73.90
2017-12-26T08:38:11.112Z,61.20
2017-12-26T08:40:39.806Z,59.60
2017-12-26T08:43:08.973Z,54.00
2017-12-26T08:45:37.396Z,53.30
2017-12-26T08:48:06.610Z,40.20
2017-12-26T08:50:35.601Z,40.40
2017-12-26T08:53:04.778Z,39.80
2017-12-26T08:55:33.227Z,39.70
2017-12-26T08:58:01.653Z,37.00
2017-12-26T09:00:30.872Z,32.00
2017-12-26T09:02:59.287Z,32.00
2017-12-26T09:05:27.954Z,32.80
2017-12-26T09:07:56.382Z,34.00
2017-12-26T09:10:24.822Z,33.50
2017-12-26T09:12:53.247Z,33.80
2017-12-26T09:15:21.665Z,33.30
2017-12-26T09:17:50.063Z,32.00
2017-12-26T09:20:18.488Z,32.70
2017-12-26T09:22:46.901Z,33.30
2017-12-26T09:25:15.306Z,33.50
2017-12-26T09:27:43.715Z,31.90
2017-12-26T09:30:12.354Z,30.90
2017-12-26T09:32:40.777Z,31.20
2017-12-26T09:35:09.256Z,30.30
2017-12-26T09:37:37.884Z,28.60
2017-12-26T09:40:07.095Z,28.50
2017-12-26T09:42:35.535Z,28.50
2017-12-26T09:45:03.992Z,29.20
2017-12-26T09:47:32.417Z,29.40
2017-12-26T09:50:01.662Z,28.40
2017-12-26T09:52:30.086Z,28.40
2017-12-26T09:54:58.500Z,25.60
2017-12-26T09:57:26.925Z,27.80
2017-12-26T09:59:55.344Z,27.80
2017-12-26T10:02:23.769Z,27.20
2017-12-26T10:04:52.244Z,26.50
2017-12-26T10:07:20.692Z,26.90
2017-12-26T10:09:49.147Z,26.70
2017-12-26T10:12:17.619Z,26.60
2017-12-26T10:14:46.040Z,26.40
2017-12-26T10:17:14.898Z,28.00
2017-12-26T10:19:43.331Z,28.00
2017-12-26T10:22:11.833Z,24.80
2017-12-26T10:24:40.263Z,24.40
2017-12-26T10:27:08.697Z,25.00
2017-12-26T10:29:37.107Z,24.30
2017-12-26T10:32:05.525Z,23.10
2017-12-26T10:34:34.732Z,23.10
2017-12-26T10:37:03.153Z,23.10
2017-12-26T10:39:31.580Z,24.00
2017-12-26T10:42:00.811Z,25.50
2017-12-26T10:44:29.234Z,25.40
2017-12-26T10:46:57.724Z,26.40
2017-12-26T10:49:26.928Z,28.50
2017-12-26T10:51:56.124Z,28.90
2017-12-26T10:54:24.600Z,28.80
2017-12-26T10:56:53.819Z,31.20
2017-12-26T10:59:23.015Z,31.90
2017-12-26T11:01:52.301Z,32.40
2017-12-26T11:04:21.585Z,32.30
2017-12-26T11:06:50.829Z,31.60
2017-12-26T11:09:19.326Z,31.40
2017-12-26T11:11:47.767Z,31.50
2017-12-26T11:14:16.217Z,32.60
2017-12-26T11:16:44.672Z,34.00
2017-12-26T11:19:13.103Z,32.90
2017-12-26T11:21:41.579Z,33.30
2017-12-26T11:24:10.040Z,33.20
2017-12-26T11:26:38.482Z,33.30
2017-12-26T11:29:06.933Z,35.30
2017-12-26T11:31:35.379Z,35.10
2017-12-26T11:34:03.865Z,34.00
2017-12-26T11:36:32.316Z,34.20
2017-12-26T11:39:00.782Z,35.40
2017-12-26T11:41:30.025Z,35.80
2017-12-26T11:43:58.463Z,35.80
2017-12-26T11:46:27.747Z,35.00
2017-12-26T11:48:56.175Z,34.90
2017-12-26T11:51:24.612Z,34.60
2017-12-26T11:53:53.113Z,35.20
2017-12-26T11:56:22.327Z,35.60
2017-12-26T11:58:50.849Z,35.60
2017-12-26T12:01:20.872Z,36.30
2017-12-26T12:03:49.415Z,36.90
2017-12-26T12:06:17.881Z,38.10
2017-12-26T12:08:46.338Z,37.30
2017-12-26T12:11:14.790Z,38.00
2017-12-26T12:13:43.236Z,38.60
2017-12-26T12:16:11.658Z,38.20
2017-12-26T12:18:40.138Z,38.10
2017-12-26T12:21:08.570Z,38.80
2017-12-26T12:23:37.820Z,39.00
2017-12-26T12:26:06.474Z,38.90
2017-12-26T12:28:34.870Z,39.60
2017-12-26T12:31:03.286Z,39.60
2017-12-26T12:33:31.723Z,41.10
2017-12-26T12:36:00.191Z,41.40
2017-12-26T12:38:28.627Z,39.90
2017-12-26T12:40:57.209Z,39.30
2017-12-26T12:43:26.541Z,40.00
2017-12-26T12:45:55.751Z,39.20
2017-12-26T12:48:24.985Z,38.70
2017-12-26T12:50:53.403Z,38.80
2017-12-26T12:53:21.807Z,38.80
2017-12-26T12:55:51.015Z,37.30
2017-12-26T12:58:20.196Z,37.70
2017-12-26T13:00:48.627Z,37.60
2017-12-26T13:03:17.083Z,39.50
2017-12-26T13:05:45.525Z,39.00
2017-12-26T13:08:13.770Z,39.90
2017-12-26T13:10:42.231Z,40.30
2017-12-26T13:13:10.650Z,42.40
2017-12-26T13:15:39.113Z,42.50
2017-12-26T13:18:08.404Z,45.50
2017-12-26T13:20:36.866Z,45.50
2017-12-26T13:23:05.295Z,48.10
2017-12-26T13:25:33.730Z,50.80
2017-12-26T13:28:02.180Z,51.30
2017-12-26T13:30:30.693Z,51.40
2017-12-26T13:32:59.126Z,52.30
2017-12-26T13:35:27.553Z,51.80
2017-12-26T13:37:55.963Z,51.40
2017-12-26T13:40:24.413Z,47.30
2017-12-26T13:42:53.613Z,44.40
2017-12-26T13:45:22.042Z,44.30
2017-12-26T13:47:50.670Z,43.70
2017-12-26T13:50:19.883Z,40.90
2017-12-26T13:52:48.281Z,40.90
2017-12-26T13:55:16.704Z,39.90
2017-12-26T13:57:45.222Z,40.40
2017-12-26T14:00:13.653Z,40.10
2017-12-26T14:02:42.096Z,42.10
2017-12-26T14:05:10.569Z,42.50
2017-12-26T14:07:40.324Z,42.70
2017-12-26T14:10:09.526Z,43.60
2017-12-26T14:12:39.035Z,45.40
2017-12-26T14:15:07.562Z,46.90
2017-12-26T14:17:38.958Z,50.10
2017-12-26T14:20:10.332Z,50.10
2017-12-26T14:22:39.472Z,49.80
2017-12-26T14:25:08.235Z,50.80
2017-12-26T14:27:36.958Z,52.00
2017-12-26T14:30:05.674Z,53.20
2017-12-26T14:32:34.373Z,52.90
2017-12-26T14:35:03.057Z,53.00
2017-12-26T14:37:31.757Z,55.30
2017-12-26T14:40:00.463Z,55.10
2017-12-26T14:42:29.171Z,54.30
2017-12-26T14:44:57.908Z,55.20
2017-12-26T14:47:26.598Z,56.10
2017-12-26T14:49:55.297Z,55.20
2017-12-26T14:52:23.973Z,55.40
2017-12-26T14:54:52.661Z,56.60
2017-12-26T14:57:21.394Z,58.20
2017-12-26T14:59:50.097Z,57.90
2017-12-26T15:02:18.790Z,58.30
2017-12-26T15:04:47.309Z,58.50
2017-12-26T15:07:15.985Z,59.70
2017-12-26T15:09:45.448Z,60.30
2017-12-26T15:12:14.148Z,60.30
2017-12-26T15:14:42.820Z,60.60
2017-12-26T15:17:11.295Z,62.00
2017-12-26T15:19:39.981Z,63.40
2017-12-26T15:22:08.444Z,63.90
2017-12-26T15:24:37.106Z,63.80
2017-12-26T15:27:05.717Z,64.60
2017-12-26T15:29:34.364Z,66.20
2017-12-26T15:32:03.027Z,66.30
2017-12-26T15:34:31.701Z,66.50
2017-12-26T15:37:00.345Z,67.30
2017-12-26T15:39:29.009Z,67.60
2017-12-26T15:41:58.459Z,68.20
2017-12-26T15:44:27.112Z,68.10
2017-12-26T15:46:55.965Z,68.60
2017-12-26T15:49:24.654Z,68.60
2017-12-26T15:51:53.333Z,68.40
2017-12-26T15:54:21.997Z,68.90
2017-12-26T15:56:53.696Z,69.30
2017-12-26T15:59:22.890Z,69.10
2017-12-26T16:01:51.587Z,69.40
2017-12-26T16:04:21.077Z,68.90
2017-12-26T16:06:50.333Z,71.00
2017-12-26T16:09:19.036Z,71.00
2017-12-26T16:11:47.791Z,70.80
2017-12-26T16:14:16.609Z,70.40
2017-12-26T16:16:45.961Z,70.30
2017-12-26T16:19:15.481Z,71.90
2017-12-26T16:21:44.910Z,71.40
2017-12-26T16:24:13.581Z,71.40
2017-12-26T16:26:42.293Z,71.10
2017-12-26T16:29:10.943Z,71.40
2017-12-26T16:31:39.626Z,72.10
2017-12-26T16:34:09.118Z,73.00
2017-12-26T16:36:38.151Z,73.00
2017-12-26T16:39:07.714Z,73.10
2017-12-26T16:41:36.405Z,72.90
2017-12-26T16:44:05.232Z,74.70
2017-12-26T16:46:33.918Z,73.70
2017-12-26T16:49:02.720Z,74.00
2017-12-26T16:51:31.400Z,74.40
2017-12-26T16:54:00.122Z,74.00
2017-12-26T16:56:28.877Z,73.70
2017-12-26T16:58:57.546Z,74.20
2017-12-26T17:01:26.982Z,75.30
2017-12-26T17:03:55.650Z,75.20
2017-12-26T17:06:24.378Z,74.30
2017-12-26T17:08:53.074Z,73.50
2017-12-26T17:11:21.569Z,73.40
2017-12-26T17:13:50.248Z,73.30
2017-12-26T17:16:18.955Z,73.90
2017-12-26T17:18:47.657Z,74.60
2017-12-26T17:21:17.144Z,74.20
2017-12-26T17:23:45.862Z,74.20
2017-12-26T17:26:14.542Z,74.00
2017-12-26T17:28:44.090Z,74.20
2017-12-26T17:31:12.729Z,74.20
2017-12-26T17:33:42.161Z,73.90
2017-12-26T17:36:10.885Z,73.80
2017-12-26T17:38:39.606Z,73.70
2017-12-26T17:41:09.068Z,73.60
2017-12-26T17:43:37.736Z,73.50
2017-12-26T17:46:06.397Z,73.50
2017-12-26T17:48:35.092Z,73.80
2017-12-26T17:51:03.786Z,73.90
2017-12-26T17:53:32.444Z,73.70
2017-12-26T17:56:01.865Z,73.80
2017-12-26T17:58:31.320Z,74.90
2017-12-26T18:00:59.987Z,74.90
2017-12-26T18:03:28.648Z,75.70
2017-12-26T18:05:57.304Z,75.70
2017-12-26T18:08:25.765Z,76.10
2017-12-26T18:10:54.246Z,75.40
2017-12-26T18:13:23.546Z,75.60
2017-12-26T18:15:52.029Z,75.60
2017-12-26T18:18:20.550Z,75.90
2017-12-26T18:20:50.005Z,75.60
2017-12-26T18:23:18.719Z,75.60
2017-12-26T18:25:47.431Z,76.20
2017-12-26T18:28:16.185Z,76.40
2017-12-26T18:30:44.973Z,76.60
2017-12-26T18:33:13.798Z,76.30
2017-12-26T18:35:43.268Z,75.70
2017-12-26T18:38:11.931Z,75.70
2017-12-26T18:40:40.340Z,75.80
2017-12-26T18:43:09.078Z,76.00
2017-12-26T18:45:37.764Z,76.50
2017-12-26T18:48:06.296Z,75.40
2017-12-26T18:50:35.065Z,75.70
2017-12-26T18:53:03.748Z,75.40
2017-12-26T18:55:32.420Z,76.00
2017-12-26T18:58:01.112Z,77.10
2017-12-26T19:00:29.748Z,77.10
2017-12-26T19:02:58.392Z,76.90
2017-12-26T19:05:27.058Z,76.70
2017-12-26T19:07:55.700Z,76.90
2017-12-26T19:10:24.549Z,76.30
2017-12-26T19:12:53.350Z,76.40
2017-12-26T19:15:22.065Z,76.50
2017-12-26T19:17:50.720Z,76.50
2017-12-26T19:20:19.506Z,77.00
2017-12-26T19:22:48.160Z,76.90
2017-12-26T19:25:16.804Z,76.70
2017-12-26T19:27:45.516Z,77.30
2017-12-26T19:30:14.996Z,76.90
2017-12-26T19:32:43.672Z,76.90
2017-12-26T19:35:12.480Z,77.20
2017-12-26T19:37:41.165Z,77.20
2017-12-26T19:40:09.868Z,77.70
2017-12-26T19:42:38.623Z,77.20
2017-12-26T19:45:07.376Z,77.70
2017-12-26T19:47:36.784Z,77.00
2017-12-26T19:50:05.525Z,77.00
2017-12-26T19:52:34.211Z,77.40
2017-12-26T19:55:02.872Z,77.90
2017-12-26T19:57:31.524Z,77.70
2017-12-26T20:00:01.009Z,77.10
2017-12-26T20:02:29.677Z,77.10
2017-12-26T20:04:58.454Z,76.50
2017-12-26T20:07:27.133Z,77.20
2017-12-26T20:09:56.205Z,77.40
2017-12-26T20:12:24.865Z,77.40
2017-12-26T20:14:53.654Z,76.80
2017-12-26T20:17:23.109Z,77.90
2017-12-26T20:19:51.832Z,77.80
2017-12-26T20:22:21.284Z,77.70
2017-12-26T20:24:49.956Z,77.70
2017-12-26T20:27:18.428Z,77.80
2017-12-26T20:30:02.688Z,78.40
2017-12-26T20:32:31.376Z,78.40
2017-12-26T20:35:00.069Z,78.30
2017-12-26T20:37:28.773Z,77.60
2017-12-26T20:39:57.414Z,78.50
2017-12-26T20:42:26.094Z,79.40
2017-12-26T20:44:55.553Z,79.50
2017-12-26T20:47:24.212Z,79.60
2017-12-26T20:49:53.665Z,80.40
2017-12-26T20:52:22.439Z,80.30
2017-12-26T20:54:51.152Z,80.10
2017-12-26T20:57:19.871Z,79.40
2017-12-26T20:59:49.511Z,80.40
2017-12-26T21:02:18.221Z,80.40
2017-12-26T21:04:47.007Z,80.50
2017-12-26T21:07:15.742Z,80.80
2017-12-26T21:09:45.164Z,82.00
2017-12-26T21:12:13.842Z,81.90
2017-12-26T21:14:42.557Z,80.80
2017-12-26T21:17:11.240Z,80.60
2017-12-26T21:19:39.917Z,80.70
2017-12-26T21:22:09.552Z,80.60
2017-12-26T21:24:38.253Z,81.30
2017-12-26T21:27:06.940Z,81.30
2017-12-26T21:29:35.612Z,81.20
2017-12-26T21:32:04.709Z,81.40
2017-12-26T21:34:34.174Z,80.30
2017-12-26T21:37:03.320Z,80.80
2017-12-26T21:39:32.106Z,80.00
2017-12-26T21:42:01.368Z,80.50
2017-12-26T21:44:30.078Z,80.00
2017-12-26T21:46:58.561Z,79.30
2017-12-26T21:49:27.004Z,79.20
2017-12-26T21:51:55.512Z,78.80
2017-12-26T21:54:25.363Z,79.30
2017-12-26T21:56:54.013Z,79.90
2017-12-26T21:59:22.709Z,79.50
2017-12-26T22:01:51.361Z,79.10
2017-12-26T22:04:20.001Z,80.40
2017-12-26T22:06:49.424Z,79.50
2017-12-26T22:09:18.830Z,79.00
2017-12-26T22:11:48.241Z,79.40
2017-12-26T22:14:16.901Z,79.40
2017-12-26T22:16:45.535Z,79.70
2017-12-26T22:19:14.173Z,80.20
2017-12-26T22:21:42.832Z,80.00
2017-12-26T22:24:11.485Z,80.20
2017-12-26T22:26:40.343Z,80.20
2017-12-26T22:29:09.052Z,79.00
2017-12-26T22:31:37.737Z,79.30
2017-12-26T22:34:06.392Z,79.40
2017-12-26T22:36:35.066Z,80.10
2017-12-26T22:39:03.228Z,79.50
2017-12-26T22:41:31.911Z,79.70
2017-12-26T22:44:00.596Z,79.60
2017-12-26T22:46:29.237Z,79.90
2017-12-26T22:48:57.876Z,80.80
2017-12-26T22:51:26.529Z,80.40
2017-12-26T22:53:55.184Z,79.60
2017-12-26T22:56:23.868Z,80.50
2017-12-26T22:58:52.405Z,80.60
2017-12-26T23:01:21.072Z,81.20
2017-12-26T23:03:49.516Z,80.30
2017-12-26T23:06:18.268Z,80.10
2017-12-26T23:08:46.928Z,80.40
2017-12-26T23:11:15.559Z,80.50
2017-12-26T23:13:44.045Z,80.80
2017-12-26T23:16:18.032Z,81.20
2017-12-26T23:18:46.777Z,81.60
2017-12-26T23:21:16.172Z,81.30
2017-12-26T23:23:50.958Z,80.60
2017-12-26T23:26:38.236Z,80.60
2017-12-26T23:29:13.129Z,81.50
2017-12-26T23:31:47.671Z,81.50
2017-12-26T23:34:21.736Z,81.80
2017-12-26T23:36:55.860Z,81.20
2017-12-26T23:39:29.912Z,81.10
2017-12-26T23:42:04.071Z,81.50
2017-12-26T23:44:38.093Z,82.00
2017-12-26T23:47:12.218Z,81.30
2017-12-26T23:49:46.263Z,80.90
2017-12-26T23:52:20.288Z,81.20
2017-12-26T23:54:55.076Z,81.60
2017-12-26T23:57:29.208Z,81.40
